createdAt,value
2022-11-24T00:01:30.741Z,4.37
2022-11-24T00:04:04.516Z,4.38
2022-11-24T00:06:34.952Z,4.38
2022-11-24T00:09:05.211Z,4.36
2022-11-24T00:11:35.887Z,4.34
2022-11-24T00:14:05.767Z,4.34
2022-11-24T00:16:36.061Z,4.39
2022-11-24T00:19:09.379Z,4.37
2022-11-24T00:21:38.209Z,4.39
2022-11-24T00:24:06.947Z,4.33
2022-11-24T00:26:37.750Z,4.36
2022-11-24T00:29:07.824Z,4.36
2022-11-24T00:31:41.750Z,4.35
2022-11-24T00:34:14.636Z,4.33
2022-11-24T00:36:43.673Z,4.36
2022-11-24T00:39:14.307Z,4.34
2022-11-24T00:41:43.801Z,4.39
2022-11-24T00:44:12.084Z,4.41
2022-11-24T00:46:40.265Z,4.39
2022-11-24T00:49:08.849Z,4.39
2022-11-24T00:51:37.040Z,4.38
2022-11-24T00:54:06.400Z,4.39
2022-11-24T00:56:35.178Z,4.38
2022-11-24T00:59:04.333Z,4.39
2022-11-24T01:01:32.493Z,4.39
2022-11-24T01:04:05.542Z,4.39
2022-11-24T01:06:35.695Z,4.37
2022-11-24T01:09:04.503Z,4.40
2022-11-24T01:11:54.674Z,4.40
2022-11-24T01:14:24.799Z,4.37
2022-11-24T01:16:53.449Z,4.34
2022-11-24T01:19:21.775Z,4.33
2022-11-24T01:21:50.605Z,4.34
2022-11-24T01:24:19.130Z,4.41
2022-11-24T01:26:47.498Z,4.41
2022-11-24T01:29:15.995Z,4.40
2022-11-24T01:31:44.483Z,4.45
2022-11-24T01:34:13.669Z,4.44
2022-11-24T01:36:42.062Z,4.46
2022-11-24T01:39:10.636Z,4.47
2022-11-24T01:41:38.851Z,4.46
2022-11-24T01:44:26.652Z,4.46
2022-11-24T01:47:01.033Z,4.47
2022-11-24T01:49:57.393Z,4.49
2022-11-24T01:52:32.022Z,4.47
2022-11-24T01:55:06.959Z,4.41
2022-11-24T01:57:41.376Z,4.43
2022-11-24T02:00:13.212Z,4.42
2022-11-24T02:02:43.901Z,4.42
2022-11-24T02:05:20.716Z,4.44
2022-11-24T02:07:49.454Z,4.45
2022-11-24T02:10:18.027Z,4.49
2022-11-24T02:12:48.894Z,4.51
2022-11-24T02:15:18.821Z,4.47
2022-11-24T02:17:47.267Z,4.46
2022-11-24T02:20:16.684Z,4.41
2022-11-24T02:22:55.886Z,4.40
2022-11-24T02:25:26.851Z,4.37
2022-11-24T02:27:57.233Z,4.37
2022-11-24T02:30:25.750Z,4.37
2022-11-24T02:32:54.326Z,4.29
2022-11-24T02:35:22.725Z,4.30
2022-11-24T02:37:51.004Z,4.29
2022-11-24T02:40:25.696Z,4.32
2022-11-24T02:42:55.352Z,4.31
2022-11-24T02:45:24.296Z,4.27
2022-11-24T02:47:52.794Z,4.27
2022-11-24T02:50:21.297Z,4.25
2022-11-24T02:52:49.472Z,4.22
2022-11-24T02:55:17.627Z,4.22
2022-11-24T02:57:46.224Z,4.20
2022-11-24T03:00:14.797Z,4.19
2022-11-24T03:02:42.884Z,4.18
2022-11-24T03:05:12.503Z,4.11
2022-11-24T03:07:40.753Z,4.04
2022-11-24T03:10:09.371Z,4.03
2022-11-24T03:12:38.251Z,3.98
2022-11-24T03:15:06.657Z,3.99
2022-11-24T03:17:35.064Z,3.96
2022-11-24T03:20:05.077Z,3.92
2022-11-24T03:22:33.270Z,3.91
2022-11-24T03:25:01.404Z,3.96
2022-11-24T03:27:31.263Z,3.93
2022-11-24T03:29:59.353Z,3.90
2022-11-24T03:32:27.670Z,3.90
2022-11-24T03:34:55.989Z,3.90
2022-11-24T03:37:24.164Z,3.93
2022-11-24T03:39:52.289Z,3.89
2022-11-24T03:42:20.826Z,3.86
2022-11-24T03:44:48.930Z,3.86
2022-11-24T03:47:17.047Z,3.85
2022-11-24T03:49:45.852Z,3.78
2022-11-24T03:52:14.087Z,3.76
2022-11-24T03:54:42.689Z,3.78
2022-11-24T03:57:11.103Z,3.79
2022-11-24T03:59:39.599Z,3.77
2022-11-24T04:02:07.866Z,3.68
2022-11-24T04:04:36.413Z,3.65
2022-11-24T04:07:04.496Z,3.72
2022-11-24T04:09:32.797Z,3.64
2022-11-24T04:12:19.599Z,3.59
2022-11-24T04:14:47.653Z,3.56
2022-11-24T04:17:16.050Z,3.61
2022-11-24T04:19:44.492Z,3.52
2022-11-24T04:22:12.609Z,3.57
2022-11-24T04:24:40.997Z,3.65
2022-11-24T04:27:09.097Z,3.64
2022-11-24T04:29:40.585Z,3.56
2022-11-24T04:32:09.086Z,3.59
2022-11-24T04:34:37.322Z,3.49
2022-11-24T04:37:05.536Z,3.45
2022-11-24T04:39:34.142Z,3.43
2022-11-24T04:42:02.479Z,3.45
2022-11-24T04:44:30.675Z,3.44
2022-11-24T04:47:01.016Z,3.40
2022-11-24T04:49:29.584Z,3.37
2022-11-24T04:51:57.656Z,3.37
2022-11-24T04:54:26.278Z,3.35
2022-11-24T04:56:54.415Z,3.36
2022-11-24T04:59:22.447Z,3.29
2022-11-24T05:01:50.983Z,3.26
2022-11-24T05:04:20.402Z,3.17
2022-11-24T05:06:48.445Z,3.22
2022-11-24T05:09:17.561Z,3.22
2022-11-24T05:11:45.666Z,3.29
2022-11-24T05:14:13.925Z,3.24
2022-11-24T05:16:42.359Z,3.19
2022-11-24T05:19:10.713Z,3.18
2022-11-24T05:21:39.148Z,3.20
2022-11-24T05:24:08.587Z,3.28
2022-11-24T05:26:36.773Z,3.26
2022-11-24T05:29:05.268Z,3.30
2022-11-24T05:31:33.766Z,3.24
2022-11-24T05:34:01.875Z,3.22
2022-11-24T05:36:48.704Z,3.20
2022-11-24T05:39:17.149Z,3.20
2022-11-24T05:41:45.452Z,3.26
2022-11-24T05:44:13.571Z,3.26
2022-11-24T05:46:42.075Z,3.33
2022-11-24T05:49:10.374Z,3.36
2022-11-24T05:51:38.476Z,3.48
2022-11-24T05:54:06.998Z,3.46
2022-11-24T05:56:35.087Z,3.34
2022-11-24T05:59:09.487Z,3.37
2022-11-24T06:01:38.331Z,3.42
2022-11-24T06:04:06.635Z,3.37
2022-11-24T06:06:34.640Z,3.45
2022-11-24T06:09:02.771Z,3.44
2022-11-24T06:11:31.363Z,3.40
2022-11-24T06:13:59.412Z,3.37
2022-11-24T06:16:27.746Z,3.36
2022-11-24T06:18:56.304Z,3.36
2022-11-24T06:21:24.526Z,3.34
2022-11-24T06:23:52.580Z,3.33
2022-11-24T06:26:21.426Z,3.36
2022-11-24T06:28:49.510Z,3.38
2022-11-24T06:31:17.864Z,3.44
2022-11-24T06:33:46.929Z,3.45
2022-11-24T06:36:15.488Z,3.45
2022-11-24T06:38:43.750Z,3.42
2022-11-24T06:41:15.483Z,3.45
2022-11-24T06:43:44.437Z,3.47
2022-11-24T06:46:13.082Z,3.47
2022-11-24T06:48:41.199Z,3.51
2022-11-24T06:51:13.123Z,3.53
2022-11-24T06:53:41.537Z,3.55
2022-11-24T06:56:16.685Z,3.59
2022-11-24T06:58:48.003Z,3.65
2022-11-24T07:01:28.102Z,3.70
2022-11-24T07:03:58.155Z,3.79
2022-11-24T07:06:26.787Z,3.86
2022-11-24T07:08:55.173Z,3.85
2022-11-24T07:11:24.409Z,3.82
2022-11-24T07:13:56.700Z,3.81
2022-11-24T07:16:29.193Z,3.89
2022-11-24T07:18:58.319Z,3.91
2022-11-24T07:21:27.252Z,3.88
2022-11-24T07:23:57.201Z,3.85
2022-11-24T07:26:25.884Z,3.99
2022-11-24T07:28:53.977Z,3.87
2022-11-24T07:31:25.059Z,3.99
2022-11-24T07:33:55.449Z,3.94
2022-11-24T07:36:24.489Z,4.01
2022-11-24T07:38:52.614Z,3.96
2022-11-24T07:41:20.855Z,3.99
2022-11-24T07:43:51.960Z,3.97
2022-11-24T07:46:20.808Z,4.04
2022-11-24T07:48:49.320Z,4.04
2022-11-24T07:51:17.650Z,4.02
2022-11-24T07:53:45.943Z,4.07
2022-11-24T07:56:14.416Z,4.13
2022-11-24T07:58:43.230Z,4.13
2022-11-24T08:01:15.221Z,4.12
2022-11-24T08:03:44.787Z,4.14
2022-11-24T08:06:37.494Z,4.18
2022-11-24T08:09:02.565Z,4.20
2022-11-24T08:11:31.582Z,4.20
2022-11-24T08:13:59.792Z,4.21
2022-11-24T08:16:28.469Z,4.24
2022-11-24T08:18:56.809Z,4.29
2022-11-24T08:21:25.363Z,4.27
2022-11-24T08:23:55.103Z,4.30
2022-11-24T08:26:24.965Z,4.33
2022-11-24T08:28:59.050Z,4.24
2022-11-24T08:31:33.648Z,4.20
2022-11-24T08:34:04.070Z,4.26
2022-11-24T08:36:33.202Z,4.23
2022-11-24T08:39:02.146Z,4.20
2022-11-24T08:41:31.392Z,4.28
2022-11-24T08:43:59.617Z,4.19
2022-11-24T08:46:27.997Z,4.27
2022-11-24T08:48:56.551Z,4.29
2022-11-24T08:51:26.656Z,4.29
2022-11-24T08:54:00.800Z,4.26
2022-11-24T08:56:31.527Z,4.31
2022-11-24T08:59:00.555Z,4.39
2022-11-24T09:01:29.533Z,4.38
2022-11-24T09:03:57.827Z,4.49
2022-11-24T09:06:31.113Z,4.51
2022-11-24T09:09:00.146Z,4.51
2022-11-24T09:11:28.917Z,4.56
2022-11-24T09:13:57.245Z,4.64
2022-11-24T09:16:29.063Z,4.61
2022-11-24T09:19:02.910Z,4.71
2022-11-24T09:21:34.428Z,4.90
2022-11-24T09:24:02.482Z,4.90
2022-11-24T09:26:33.568Z,5.03
2022-11-24T09:29:03.987Z,5.06
2022-11-24T09:31:34.583Z,4.99
2022-11-24T09:34:08.841Z,5.09
2022-11-24T09:36:37.085Z,5.11
2022-11-24T09:39:05.581Z,5.20
2022-11-24T09:41:46.096Z,5.37
2022-11-24T09:45:06.572Z,5.41
2022-11-24T09:47:34.649Z,5.47
2022-11-24T09:50:14.690Z,5.42
2022-11-24T09:53:05.833Z,5.48
2022-11-24T09:55:47.887Z,5.63
2022-11-24T09:58:45.054Z,5.64
2022-11-24T10:01:19.997Z,5.55
2022-11-24T10:03:52.784Z,5.45
2022-11-24T10:06:25.704Z,5.58
2022-11-24T10:08:54.146Z,5.50
2022-11-24T10:11:45.165Z,5.45
2022-11-24T10:14:36.018Z,5.58
2022-11-24T10:17:17.854Z,5.43
2022-11-24T10:20:16.866Z,5.42
2022-11-24T10:23:39.965Z,5.38
2022-11-24T10:26:33.170Z,5.50
2022-11-24T10:29:07.405Z,5.44
2022-11-24T10:31:38.382Z,5.44
2022-11-24T10:34:25.684Z,5.43
2022-11-24T10:37:23.485Z,5.47
2022-11-24T10:40:01.285Z,5.50
2022-11-24T10:42:38.221Z,5.43
2022-11-24T10:45:18.516Z,5.46
2022-11-24T10:47:47.193Z,5.40
2022-11-24T10:50:25.626Z,5.54
2022-11-24T10:53:07.240Z,5.43
2022-11-24T10:55:57.167Z,5.50
2022-11-24T10:58:38.559Z,5.59
2022-11-24T11:01:13.491Z,5.55
2022-11-24T11:03:48.054Z,5.53
2022-11-24T11:06:28.598Z,5.65
2022-11-24T11:09:09.359Z,5.64
2022-11-24T11:11:39.915Z,5.64
2022-11-24T11:14:12.704Z,5.62
2022-11-24T11:16:45.953Z,5.65
2022-11-24T11:19:48.908Z,5.74
2022-11-24T11:22:26.787Z,5.81
2022-11-24T11:25:10.669Z,5.82
2022-11-24T11:27:40.537Z,5.76
2022-11-24T11:36:14.816Z,6.06
2022-11-24T11:38:44.220Z,5.98
2022-11-24T11:41:36.057Z,5.97
2022-11-24T11:44:23.046Z,6.14
2022-11-24T11:46:53.716Z,6.14
2022-11-24T11:49:21.846Z,6.13
2022-11-24T11:52:12.325Z,6.09
2022-11-24T11:54:40.726Z,6.19
2022-11-24T11:57:25.142Z,6.31
2022-11-24T12:00:13.034Z,6.23
2022-11-24T12:03:32.481Z,6.29
2022-11-24T12:06:25.283Z,6.31
2022-11-24T12:09:19.356Z,6.27
2022-11-24T12:11:53.740Z,6.41
2022-11-24T12:14:44.873Z,6.38
2022-11-24T12:17:18.966Z,6.41
2022-11-24T12:20:28.921Z,6.38
2022-11-24T12:23:15.235Z,6.40
2022-11-24T12:26:06.739Z,6.32
2022-11-24T12:28:52.733Z,6.27
2022-11-24T12:31:45.401Z,6.29
2022-11-24T12:34:27.590Z,6.31
2022-11-24T12:37:12.940Z,6.18
2022-11-24T12:40:02.051Z,6.29
2022-11-24T12:42:48.467Z,6.18
2022-11-24T12:45:33.337Z,6.18
2022-11-24T12:48:21.170Z,6.16
2022-11-24T12:50:51.619Z,6.22
2022-11-24T12:53:24.836Z,6.31
2022-11-24T12:55:54.723Z,6.40
2022-11-24T12:58:32.428Z,6.47
2022-11-24T13:01:17.162Z,6.63
2022-11-24T13:04:10.786Z,6.64
2022-11-24T13:07:02.373Z,6.60
2022-11-24T13:09:30.939Z,6.58
2022-11-24T13:12:14.153Z,6.52
2022-11-24T13:14:49.823Z,6.36
2022-11-24T13:17:39.599Z,6.25
2022-11-24T13:20:21.739Z,6.14
2022-11-24T13:22:53.166Z,6.14
2022-11-24T13:25:23.825Z,6.11
2022-11-24T13:27:53.882Z,6.11
2022-11-24T13:30:34.664Z,6.19
2022-11-24T13:33:16.514Z,6.12
2022-11-24T13:36:04.705Z,6.14
2022-11-24T13:38:39.104Z,6.11
2022-11-24T13:41:33.577Z,6.11
2022-11-24T13:44:15.357Z,6.10
2022-11-24T13:47:25.827Z,6.14
2022-11-24T13:49:54.219Z,6.15
2022-11-24T13:52:41.481Z,6.06
2022-11-24T13:55:12.356Z,6.05
2022-11-24T13:57:52.111Z,6.23
2022-11-24T14:00:23.169Z,6.15
2022-11-24T14:02:54.655Z,6.09
2022-11-24T14:05:33.644Z,6.04
2022-11-24T14:08:03.030Z,6.07
2022-11-24T14:10:37.843Z,6.07
2022-11-24T14:13:27.690Z,6.00
2022-11-24T14:16:06.824Z,6.00
2022-11-24T14:18:41.184Z,5.95
2022-11-24T14:21:22.966Z,6.00
2022-11-24T14:24:12.169Z,6.07
2022-11-24T14:26:41.423Z,6.19
2022-11-24T14:29:24.272Z,6.10
2022-11-24T14:31:55.199Z,6.01
2022-11-24T14:34:26.330Z,5.91
2022-11-24T14:36:56.378Z,5.89
2022-11-24T14:39:26.924Z,5.89
2022-11-24T14:41:58.985Z,5.93
2022-11-24T14:44:31.817Z,5.93
2022-11-24T14:47:13.171Z,5.83
2022-11-24T14:49:43.242Z,5.87
2022-11-24T14:52:18.442Z,5.99
2022-11-24T14:54:50.916Z,5.96
2022-11-24T14:57:31.161Z,5.80
2022-11-24T15:00:09.087Z,5.69
2022-11-24T15:02:50.541Z,5.66
2022-11-24T15:05:54.119Z,5.65
2022-11-24T15:08:24.913Z,5.70
2022-11-24T15:11:02.146Z,5.85
2022-11-24T15:13:37.284Z,5.83
2022-11-24T15:16:14.865Z,5.76
2022-11-24T15:18:45.954Z,5.69
2022-11-24T15:21:19.247Z,5.87
2022-11-24T15:24:15.839Z,5.74
2022-11-24T15:26:44.902Z,3.84
2022-11-24T15:29:13.601Z,5.84
2022-11-24T15:31:47.693Z,5.78
2022-11-24T15:34:17.783Z,5.71
2022-11-24T15:36:45.903Z,5.59
2022-11-24T15:39:14.022Z,5.63
2022-11-24T15:41:42.479Z,5.61
2022-11-24T15:44:10.658Z,5.68
2022-11-24T15:46:39.710Z,5.65
2022-11-24T15:49:08.324Z,5.74
2022-11-24T15:51:42.644Z,5.64
2022-11-24T15:54:16.988Z,5.65
2022-11-24T15:56:45.537Z,5.59
2022-11-24T15:59:20.847Z,5.65
2022-11-24T16:01:50.929Z,5.61
2022-11-24T16:04:24.122Z,5.49
2022-11-24T16:06:52.544Z,5.56
2022-11-24T16:09:20.928Z,5.50
2022-11-24T16:11:49.151Z,5.56
2022-11-24T16:14:17.574Z,5.51
2022-11-24T16:16:45.980Z,5.42
2022-11-24T16:19:16.045Z,5.49
2022-11-24T16:21:48.157Z,5.36
2022-11-24T16:24:17.006Z,5.37
2022-11-24T16:26:45.260Z,5.33
2022-11-24T16:29:13.520Z,5.33
2022-11-24T16:31:43.611Z,5.27
2022-11-24T16:34:12.030Z,5.30
2022-11-24T16:36:40.327Z,5.21
2022-11-24T16:39:08.970Z,5.26
2022-11-24T16:41:37.212Z,5.10
2022-11-24T16:44:05.589Z,4.96
2022-11-24T16:46:34.240Z,5.05
2022-11-24T16:49:03.656Z,5.06
2022-11-24T16:51:34.920Z,5.03
2022-11-24T16:54:04.064Z,4.92
2022-11-24T16:56:32.717Z,4.87
2022-11-24T16:59:01.472Z,4.79
2022-11-24T17:01:30.359Z,4.74
2022-11-24T17:03:59.295Z,4.82
2022-11-24T17:06:28.556Z,4.73
2022-11-24T17:08:57.118Z,4.61
2022-11-24T17:11:28.160Z,4.59
2022-11-24T17:13:58.309Z,4.60
2022-11-24T17:16:27.286Z,4.57
2022-11-24T17:18:58.701Z,4.50
2022-11-24T17:21:28.334Z,4.38
2022-11-24T17:24:01.551Z,4.31
2022-11-24T17:26:30.036Z,4.32
2022-11-24T17:28:58.306Z,4.21
2022-11-24T17:31:32.333Z,4.12
2022-11-24T17:34:01.534Z,4.16
2022-11-24T17:36:32.092Z,4.27
2022-11-24T17:39:04.801Z,4.21
2022-11-24T17:41:33.422Z,4.12
2022-11-24T17:44:02.917Z,4.05
2022-11-24T17:46:31.418Z,4.09
2022-11-24T17:48:59.702Z,4.04
2022-11-24T17:51:29.380Z,4.00
2022-11-24T17:53:58.230Z,4.04
2022-11-24T17:56:27.924Z,4.08
2022-11-24T17:58:59.411Z,4.07
2022-11-24T18:01:32.282Z,3.99
2022-11-24T18:04:01.618Z,4.10
2022-11-24T18:06:30.272Z,4.03
2022-11-24T18:08:58.645Z,4.01
2022-11-24T18:11:31.851Z,4.08
2022-11-24T18:14:03.094Z,4.06
2022-11-24T18:16:34.309Z,4.04
2022-11-24T18:19:08.928Z,4.11
2022-11-24T18:21:40.468Z,4.15
2022-11-24T18:24:10.962Z,4.16
2022-11-24T18:26:42.662Z,4.13
2022-11-24T18:29:11.496Z,4.20
2022-11-24T18:31:40.266Z,4.24
2022-11-24T18:34:08.951Z,4.21
2022-11-24T18:36:37.351Z,4.20
2022-11-24T18:39:08.825Z,4.24
2022-11-24T18:41:37.320Z,4.13
2022-11-24T18:44:08.487Z,4.17
2022-11-24T18:46:38.011Z,4.20
2022-11-24T18:49:07.471Z,4.10
2022-11-24T18:51:35.859Z,4.07
2022-11-24T18:54:05.551Z,4.00
2022-11-24T18:56:34.178Z,3.87
2022-11-24T18:59:02.495Z,3.85
2022-11-24T19:01:32.448Z,3.94
2022-11-24T19:04:03.024Z,3.97
2022-11-24T19:06:35.200Z,3.97
2022-11-24T19:09:07.486Z,3.87
2022-11-24T19:11:38.559Z,3.77
2022-11-24T19:14:10.730Z,3.86
2022-11-24T19:16:39.573Z,3.96
2022-11-24T19:19:10.314Z,4.01
2022-11-24T19:21:41.051Z,3.96
2022-11-24T19:24:13.038Z,4.10
2022-11-24T19:26:41.524Z,4.02
2022-11-24T19:29:10.167Z,3.94
2022-11-24T19:31:39.754Z,3.90
2022-11-24T19:34:08.543Z,3.87
2022-11-24T19:36:37.689Z,4.03
2022-11-24T19:39:07.003Z,3.88
2022-11-24T19:41:35.685Z,3.79
2022-11-24T19:44:04.861Z,3.77
2022-11-24T19:46:33.556Z,3.80
2022-11-24T19:49:02.798Z,3.70
2022-11-24T19:51:37.292Z,3.60
2022-11-24T19:54:10.403Z,3.70
2022-11-24T19:56:39.182Z,3.62
2022-11-24T19:59:10.792Z,3.62
2022-11-24T20:01:40.770Z,3.60
2022-11-24T20:04:12.416Z,3.64
2022-11-24T20:06:43.693Z,3.53
2022-11-24T20:09:15.655Z,3.51
2022-11-24T20:11:44.974Z,3.54
2022-11-24T20:14:15.463Z,3.45
2022-11-24T20:16:45.626Z,3.42
2022-11-24T20:19:17.170Z,3.46
2022-11-24T20:21:50.325Z,3.47
2022-11-24T20:24:21.303Z,3.41
2022-11-24T20:26:52.521Z,3.34
2022-11-24T20:29:22.147Z,3.36
2022-11-24T20:31:55.562Z,3.34
2022-11-24T20:34:26.291Z,3.38
2022-11-24T20:36:54.436Z,3.43
2022-11-24T20:39:28.004Z,3.59
2022-11-24T20:41:56.834Z,3.55
2022-11-24T20:44:27.328Z,3.45
2022-11-24T20:46:58.214Z,3.43
2022-11-24T20:49:26.919Z,3.40
2022-11-24T20:51:57.207Z,3.50
2022-11-24T20:54:25.886Z,3.46
2022-11-24T20:56:54.398Z,3.55
2022-11-24T20:59:25.003Z,3.57
2022-11-24T21:01:55.541Z,3.44
2022-11-24T21:04:26.140Z,3.51
2022-11-24T21:06:55.132Z,3.46
2022-11-24T21:09:24.884Z,3.44
2022-11-24T21:11:54.652Z,3.57
2022-11-24T21:14:24.401Z,3.54
2022-11-24T21:16:53.257Z,3.52
2022-11-24T21:19:21.630Z,3.51
2022-11-24T21:21:50.123Z,3.58
2022-11-24T21:24:21.849Z,3.48
2022-11-24T21:26:52.689Z,3.44
2022-11-24T21:29:23.716Z,3.44
2022-11-24T21:31:52.607Z,3.55
2022-11-24T21:34:21.265Z,3.49
2022-11-24T21:36:49.599Z,3.50
2022-11-24T21:39:18.600Z,3.45
2022-11-24T21:41:47.739Z,3.49
2022-11-24T21:44:16.275Z,3.36
2022-11-24T21:46:49.641Z,3.54
2022-11-24T21:49:22.825Z,3.45
2022-11-24T21:51:55.467Z,3.49
2022-11-24T21:54:24.539Z,3.50
2022-11-24T21:56:53.579Z,3.46
2022-11-24T21:59:22.469Z,3.43
2022-11-24T22:01:50.925Z,3.46
2022-11-24T22:04:19.314Z,3.36
2022-11-24T22:06:47.400Z,3.26
2022-11-24T22:09:18.185Z,3.28
2022-11-24T22:11:49.373Z,3.39
2022-11-24T22:14:17.884Z,3.35
2022-11-24T22:16:46.386Z,3.43
2022-11-24T22:19:14.760Z,3.42
2022-11-24T22:21:43.181Z,3.53
2022-11-24T22:24:11.657Z,3.61
2022-11-24T22:26:40.085Z,3.58
2022-11-24T22:29:08.504Z,3.75
2022-11-24T22:31:36.767Z,3.73
2022-11-24T22:34:05.205Z,3.65
2022-11-24T22:36:33.266Z,3.61
2022-11-24T22:39:03.641Z,3.57
2022-11-24T22:41:34.777Z,3.48
2022-11-24T22:44:03.049Z,3.54
2022-11-24T22:46:32.437Z,3.55
2022-11-24T22:49:01.497Z,3.60
2022-11-24T22:51:32.935Z,3.54
2022-11-24T22:54:03.626Z,3.47
2022-11-24T22:56:32.865Z,3.45
2022-11-24T22:59:02.472Z,3.47
2022-11-24T23:01:33.727Z,3.44
2022-11-24T23:04:02.494Z,3.42
2022-11-24T23:06:32.656Z,3.46
2022-11-24T23:09:02.273Z,3.42
2022-11-24T23:11:38.044Z,3.45
2022-11-24T23:14:15.343Z,3.43
2022-11-24T23:16:44.174Z,3.40
2022-11-24T23:19:12.403Z,3.32
2022-11-24T23:21:40.669Z,3.38
2022-11-24T23:24:10.550Z,3.41
2022-11-24T23:26:40.847Z,3.43
2022-11-24T23:29:10.367Z,3.44
2022-11-24T23:31:41.358Z,3.43
2022-11-24T23:34:10.076Z,3.37
2022-11-24T23:36:38.516Z,3.40
2022-11-24T23:39:08.908Z,3.35
2022-11-24T23:41:37.356Z,3.29
2022-11-24T23:44:06.006Z,3.30
2022-11-24T23:46:34.089Z,3.33
2022-11-24T23:49:02.427Z,3.30
2022-11-24T23:51:32.753Z,3.34
2022-11-24T23:54:01.128Z,3.38
2022-11-24T23:56:32.803Z,3.30
2022-11-24T23:59:03.287Z,3.34
